Time;durP1;ratioP1;P1;durP2;ratioP2;P2;SDS_P1;SDS_P2;PMS_P1;PMS_P2;Temp;Humidity;BMP_temperature;BMP_pressure;BME280_temperature;BME280_humidity;BME280_pressure;Samples;Min_cycle;Max_cycle;Signal;HPM_P1;HPM_P2
2022/01/11 00:01:14;;;;;;;4.18;2.65;;;;;;;-0.03;100.00;102766.97;5068308;28;20047;-73
2022/01/11 00:03:42;;;;;;;5.28;3.10;;;;;;;-0.01;100.00;102769.56;5071624;28;20048;-71
2022/01/11 00:06:20;;;;;;;4.40;2.70;;;;;;;-0.02;100.00;102775.59;5067481;28;20052;-74
2022/01/11 00:08:48;;;;;;;5.55;4.28;;;;;;;-0.04;100.00;102784.22;5070018;28;20044;-74
2022/01/11 00:11:15;;;;;;;3.28;2.97;;;;;;;-0.07;100.00;102773.91;5068484;28;20128;-71
2022/01/11 00:13:43;;;;;;;10.25;4.93;;;;;;;-0.05;100.00;102777.34;5069798;28;20051;-72
2022/01/11 00:16:13;;;;;;;7.90;5.25;;;;;;;-0.06;100.00;102781.63;5070182;28;20048;-72
2022/01/11 00:18:40;;;;;;;28.80;5.55;;;;;;;-0.08;100.00;102787.66;5070453;28;20047;-71
2022/01/11 00:21:06;;;;;;;20.08;4.10;;;;;;;-0.08;100.00;102782.50;5074735;28;20055;-73
2022/01/11 00:26:17;;;;;;;12.05;5.47;;;;;;;-0.13;100.00;102785.09;5071729;28;20048;-72
2022/01/11 00:28:44;;;;;;;6.45;4.63;;;;;;;-0.10;100.00;102785.09;5069581;28;20052;-72
2022/01/11 00:31:12;;;;;;;4.53;3.08;;;;;;;-0.09;100.00;102784.25;5051147;28;20063;-73
2022/01/11 00:33:43;;;;;;;7.53;3.70;;;;;;;-0.07;100.00;102784.22;5070421;28;20053;-73
2022/01/11 00:36:11;;;;;;;5.32;3.78;;;;;;;-0.10;100.00;102786.81;5074060;28;20028;-72
2022/01/11 00:38:41;;;;;;;8.90;4.88;;;;;;;-0.17;100.00;102787.69;5052688;28;20044;-72
2022/01/11 00:41:09;;;;;;;4.28;3.30;;;;;;;-0.16;100.00;102790.25;5074648;28;20061;-73
2022/01/11 00:43:38;;;;;;;3.45;3.03;;;;;;;-0.16;100.00;102792.00;5072943;28;20052;-72
2022/01/11 00:46:05;;;;;;;3.38;3.05;;;;;;;-0.15;100.00;102791.97;5067389;28;20122;-73
2022/01/11 00:48:35;;;;;;;5.43;3.67;;;;;;;-0.11;100.00;102788.53;5067386;28;20036;-73
2022/01/11 00:51:02;;;;;;;6.47;2.92;;;;;;;-0.04;100.00;102790.25;5068243;28;20105;-72
2022/01/11 00:53:29;;;;;;;7.35;4.28;;;;;;;-0.03;100.00;102791.09;5071459;28;20062;-72
2022/01/11 00:55:56;;;;;;;6.07;4.40;;;;;;;-0.14;100.00;102791.13;5068574;28;20048;-72
2022/01/11 00:58:23;;;;;;;9.57;4.80;;;;;;;-0.16;100.00;102792.00;5071944;28;20117;-72
2022/01/11 01:00:50;;;;;;;7.28;4.63;;;;;;;-0.20;100.00;102787.69;5067299;28;20043;-73
2022/01/11 01:03:17;;;;;;;7.50;5.03;;;;;;;-0.17;100.00;102796.31;5068207;28;20053;-73
2022/01/11 01:05:45;;;;;;;26.83;6.30;;;;;;;-0.08;100.00;102793.69;5063125;28;20644;-71
2022/01/11 01:08:12;;;;;;;10.75;5.20;;;;;;;-0.14;100.00;102809.19;5074367;28;20036;-73
2022/01/11 01:10:46;;;;;;;9.38;4.95;;;;;;;-0.13;100.00;102810.94;5079937;28;20544;-72
2022/01/11 01:13:16;;;;;;;6.93;3.63;;;;;;;-0.15;100.00;102822.13;5078626;28;20040;-72
2022/01/11 01:15:46;;;;;;;7.15;4.40;;;;;;;-0.08;100.00;102816.09;5079406;28;20036;-72
2022/01/11 01:18:15;;;;;;;4.53;2.80;;;;;;;-0.10;100.00;102820.38;5084255;28;20686;-75
2022/01/11 01:20:45;;;;;;;3.92;1.98;;;;;;;-0.16;100.00;102830.75;5068291;28;20040;-72
2022/01/11 01:23:12;;;;;;;5.72;4.22;;;;;;;-0.09;100.00;102832.44;5092974;28;20032;-74
2022/01/11 01:25:42;;;;;;;6.13;4.00;;;;;;;-0.16;100.00;102830.75;5094100;28;20040;-75
2022/01/11 01:28:09;;;;;;;6.57;3.70;;;;;;;-0.23;100.00;102829.88;5098222;28;20071;-74
2022/01/11 01:30:35;;;;;;;8.60;4.32;;;;;;;-0.22;100.00;102841.94;5088104;28;20445;-72
2022/01/11 01:33:02;;;;;;;11.68;3.28;;;;;;;-0.21;100.00;102837.66;5078538;28;20063;-73
2022/01/11 01:35:34;;;;;;;17.27;5.47;;;;;;;-0.22;100.00;102839.34;5083830;28;20068;-74
2022/01/11 01:38:02;;;;;;;21.70;6.13;;;;;;;-0.21;100.00;102835.91;5089887;28;20080;-75
2022/01/11 01:40:35;;;;;;;9.32;5.18;;;;;;;-0.16;100.00;102835.91;5085811;28;20103;-72
2022/01/11 01:43:03;;;;;;;7.80;3.95;;;;;;;-0.21;100.00;102837.66;5084323;28;20062;-72
2022/01/11 01:45:29;;;;;;;5.20;4.18;;;;;;;-0.20;100.00;102827.31;5077004;28;20075;-73
2022/01/11 01:47:58;;;;;;;45.10;9.68;;;;;;;-0.34;100.00;102828.19;5066153;28;20059;-72
2022/01/11 01:50:25;;;;;;;6.28;3.97;;;;;;;-0.33;100.00;102832.50;5065223;28;20183;-72
2022/01/11 01:52:52;;;;;;;7.00;4.20;;;;;;;-0.25;100.00;102839.38;5046408;28;20391;-72
2022/01/11 01:55:20;;;;;;;7.43;5.25;;;;;;;-0.30;100.00;102851.41;5066259;28;20054;-72
2022/01/11 01:57:47;;;;;;;21.05;7.45;;;;;;;-0.29;100.00;102862.63;5069645;28;20056;-72
2022/01/11 02:00:14;;;;;;;5.32;3.72;;;;;;;-0.27;100.00;102878.94;5066119;28;20063;-72
2022/01/11 02:02:41;;;;;;;12.05;6.07;;;;;;;-0.43;100.00;102877.25;5066063;28;20044;-72
2022/01/11 02:05:08;;;;;;;4.43;3.65;;;;;;;-0.46;100.00;102878.13;5068355;28;20059;-72
2022/01/11 02:07:35;;;;;;;6.07;3.38;;;;;;;-0.37;100.00;102887.59;5066085;28;20117;-71
2022/01/11 02:10:03;;;;;;;8.05;4.65;;;;;;;-0.35;100.00;102881.56;5062836;28;20135;-72
2022/01/11 02:15:12;;;;;;;7.57;5.00;;;;;;;-0.20;100.00;102865.16;5043546;27;20399;-72
2022/01/11 02:17:41;;;;;;;6.03;3.42;;;;;;;-0.22;100.00;102872.94;5047121;28;20041;-74
2022/01/11 02:20:13;;;;;;;8.25;4.95;;;;;;;-0.16;100.00;102877.22;5043027;28;20039;-72
2022/01/11 02:22:40;;;;;;;;;;;;;;;-0.23;100.00;102872.94;5037629;28;20037;-73
2022/01/11 02:25:07;;;;;;;7.32;4.45;;;;;;;-0.26;100.00;102868.66;5037242;28;20161;-73
2022/01/11 02:27:34;;;;;;;4.55;3.65;;;;;;;-0.27;100.00;102873.78;5040496;28;20077;-72
2022/01/11 02:30:00;;;;;;;6.60;4.68;;;;;;;-0.32;100.00;102872.94;5040687;28;20052;-73
2022/01/11 02:32:27;;;;;;;4.53;3.55;;;;;;;-0.30;100.00;102874.66;5041717;28;20044;-73
2022/01/11 02:34:53;;;;;;;17.88;7.28;;;;;;;-0.44;100.00;102866.06;5039438;28;20119;-72
2022/01/11 02:37:21;;;;;;;5.47;3.78;;;;;;;-0.48;100.00;102861.75;5037211;28;20059;-74
2022/01/11 02:39:48;;;;;;;14.32;4.80;;;;;;;-0.52;100.00;102866.94;5042132;28;20033;-72
2022/01/11 02:42:15;;;;;;;6.32;4.40;;;;;;;-0.57;100.00;102876.41;5039666;28;20060;-72
2022/01/11 02:44:41;;;;;;;3.22;2.92;;;;;;;-0.53;100.00;102881.56;5049412;28;20072;-72
2022/01/11 02:47:08;;;;;;;5.03;2.17;;;;;;;-0.50;100.00;102873.84;5035471;28;20040;-74
2022/01/11 02:49:37;;;;;;;14.10;4.88;;;;;;;-0.46;100.00;102877.28;5043543;28;20168;-73
2022/01/11 02:52:04;;;;;;;5.88;4.43;;;;;;;-0.47;100.00;102878.13;5039863;28;20065;-72
2022/01/11 02:54:32;;;;;;;4.30;2.88;;;;;;;-0.58;100.00;102875.56;5041884;28;20057;-72
2022/01/11 02:56:59;;;;;;;22.92;4.63;;;;;;;-0.58;100.00;102882.41;5039164;28;20041;-73
2022/01/11 02:59:25;;;;;;;3.60;3.30;;;;;;;-0.51;100.00;102899.63;5038128;28;20037;-72
2022/01/11 03:01:52;;;;;;;6.47;3.72;;;;;;;-0.56;100.00;102891.03;5038930;28;20033;-72
2022/01/11 03:04:19;;;;;;;2.10;1.85;;;;;;;-0.53;100.00;102886.72;5044982;28;20627;-71
2022/01/11 03:06:45;;;;;;;4.60;3.83;;;;;;;-0.46;100.00;102898.75;5046149;28;20045;-74
2022/01/11 03:09:12;;;;;;;8.52;4.15;;;;;;;-0.48;100.00;102899.63;5038640;28;20040;-73
2022/01/11 03:11:41;;;;;;;6.00;3.30;;;;;;;-0.56;100.00;102902.19;5040855;28;20060;-75
2022/01/11 03:14:08;;;;;;;5.22;4.28;;;;;;;-0.68;100.00;102902.22;5035228;28;20084;-73
2022/01/11 03:16:35;;;;;;;2.90;2.58;;;;;;;-0.71;100.00;102907.34;5038896;28;20447;-73
2022/01/11 03:19:02;;;;;;;6.45;2.92;;;;;;;-0.63;100.00;102913.38;5041880;28;20060;-73
2022/01/11 03:21:28;;;;;;;36.20;5.25;;;;;;;-0.80;100.00;102907.34;5044806;28;20045;-74
2022/01/11 03:23:58;;;;;;;5.43;4.35;;;;;;;-0.84;100.00;102906.50;5043861;28;20052;-72
2022/01/11 03:26:24;;;;;;;7.15;4.82;;;;;;;-0.91;100.00;102907.34;5034155;28;20065;-71
2022/01/11 03:28:52;;;;;;;6.90;4.32;;;;;;;-0.93;100.00;102902.16;5029172;28;20048;-72
2022/01/11 03:31:23;;;;;;;5.50;3.97;;;;;;;-1.03;100.00;102900.44;5036022;28;20042;-75
2022/01/11 03:33:49;;;;;;;6.25;4.72;;;;;;;-1.11;100.00;102904.72;5045069;28;20049;-71
2022/01/11 03:36:16;;;;;;;9.15;3.08;;;;;;;-1.16;100.00;102905.56;5052151;28;20049;-72
2022/01/11 03:38:43;;;;;;;7.70;4.50;;;;;;;-1.23;100.00;102907.25;5042283;28;20042;-72
2022/01/11 03:41:11;;;;;;;5.07;3.40;;;;;;;-1.28;100.00;102911.56;5029728;28;20116;-72
2022/01/11 03:43:38;;;;;;;6.95;3.83;;;;;;;-1.27;100.00;102907.25;5026879;28;20045;-72
2022/01/11 03:46:06;;;;;;;5.55;3.15;;;;;;;-1.26;100.00;102907.22;5025575;28;20060;-72
2022/01/11 03:48:32;;;;;;;4.72;3.65;;;;;;;-1.24;100.00;102913.25;5028165;28;20060;-72
2022/01/11 03:50:59;;;;;;;5.20;2.70;;;;;;;-1.24;100.00;102913.25;5028013;28;20099;-73
2022/01/11 03:53:31;;;;;;;4.40;3.65;;;;;;;-1.23;100.00;102909.00;5028749;28;20044;-73
2022/01/11 03:56:21;;;;;;;;;;;;;;;-1.16;100.00;102906.41;5033289;28;20087;-73
2022/01/11 03:58:53;;;;;;;6.15;2.83;;;;;;;-1.10;100.00;102901.25;5036912;28;19951;-73
2022/01/11 04:01:22;;;;;;;2.30;2.05;;;;;;;-1.17;100.00;102904.69;5042504;28;20053;-73
2022/01/11 04:03:49;;;;;;;5.90;3.45;;;;;;;-1.31;100.00;102903.78;5048404;28;20041;-72
2022/01/11 04:06:17;;;;;;;3.03;2.47;;;;;;;-1.40;100.00;102910.66;5042441;28;20041;-71
2022/01/11 04:08:44;;;;;;;6.03;3.13;;;;;;;-1.40;100.00;102920.97;5022793;28;20044;-75
2022/01/11 04:11:12;;;;;;;4.10;3.67;;;;;;;-1.49;100.00;102926.91;5023190;28;20045;-72
2022/01/11 04:13:42;;;;;;;3.60;2.63;;;;;;;-1.43;100.00;102929.50;5022202;28;20045;-72
2022/01/11 04:16:08;;;;;;;6.03;2.95;;;;;;;-1.37;100.00;102921.81;5021388;28;20040;-71
2022/01/11 04:18:36;;;;;;;5.35;3.33;;;;;;;-1.29;100.00;102920.13;5022034;28;20068;-71
2022/01/11 04:21:04;;;;;;;5.47;4.00;;;;;;;-1.36;100.00;102923.56;5018878;28;20095;-73
2022/01/11 04:23:32;;;;;;;14.40;2.88;;;;;;;-1.36;100.00;102926.13;5021210;28;20055;-72
2022/01/11 04:25:59;;;;;;;3.63;1.73;;;;;;;-1.37;100.00;102928.69;5024118;28;20101;-72
2022/01/11 04:28:27;;;;;;;5.35;4.35;;;;;;;-1.38;100.00;102926.94;5036735;28;20116;-72
2022/01/11 04:30:57;;;;;;;3.15;2.33;;;;;;;-1.37;100.00;102936.41;5023930;28;20044;-72
2022/01/11 04:33:25;;;;;;;3.15;1.98;;;;;;;-1.35;100.00;102934.72;5021481;28;20048;-70
2022/01/11 04:35:53;;;;;;;6.00;3.10;;;;;;;-1.32;100.00;102939.88;5021435;28;20041;-72
2022/01/11 04:38:21;;;;;;;8.77;3.20;;;;;;;-1.27;100.00;102936.44;5028827;28;20045;-74
2022/01/11 04:40:47;;;;;;;4.57;3.67;;;;;;;-1.28;100.00;102934.75;5025896;28;20064;-72
2022/01/11 04:43:14;;;;;;;6.68;3.28;;;;;;;-1.22;100.00;102921.88;5025112;28;20053;-72
2022/01/11 04:45:41;;;;;;;18.98;4.88;;;;;;;-1.23;100.00;102919.31;5024519;28;20045;-73
2022/01/11 04:48:08;;;;;;;3.53;3.10;;;;;;;-1.32;100.00;102920.13;5022911;28;20072;-73
2022/01/11 04:50:35;;;;;;;14.00;3.42;;;;;;;-1.31;100.00;102920.97;5024324;28;20063;-71
2022/01/11 04:53:04;;;;;;;4.50;3.05;;;;;;;-1.26;100.00;102920.13;5022896;28;20045;-72
2022/01/11 04:55:31;;;;;;;4.35;2.55;;;;;;;-1.25;100.00;102924.44;5025122;28;20059;-72
2022/01/11 04:58:00;;;;;;;3.53;2.50;;;;;;;-1.16;100.00;102926.19;5021901;28;20056;-72
2022/01/11 05:00:27;;;;;;;4.00;2.88;;;;;;;-1.11;100.00;102930.50;5021373;28;20033;-72
2022/01/11 05:02:56;;;;;;;5.32;2.85;;;;;;;-1.16;100.00;102927.03;5019860;28;20050;-71
2022/01/11 05:05:23;;;;;;;3.75;3.30;;;;;;;-1.11;100.00;102925.34;5019606;28;20060;-72
2022/01/11 05:07:50;;;;;;;1.80;1.42;;;;;;;-1.00;100.00;102922.78;5020165;28;20412;-73
2022/01/11 05:10:18;;;;;;;2.33;1.45;;;;;;;-1.03;100.00;102926.25;5022089;28;20060;-72
2022/01/11 05:12:44;;;;;;;3.53;3.22;;;;;;;-1.13;100.00;102921.91;5021937;28;20054;-72
2022/01/11 05:15:12;;;;;;;4.50;2.58;;;;;;;-1.17;100.00;102920.16;5021112;28;20056;-72
2022/01/11 05:17:41;;;;;;;13.20;4.25;;;;;;;-1.16;100.00;102915.88;5023201;28;20063;-73
2022/01/11 05:20:09;;;;;;;3.42;3.17;;;;;;;-1.15;100.00;102915.88;5023090;28;20049;-73
2022/01/11 05:22:36;;;;;;;3.50;2.55;;;;;;;-1.16;100.00;102916.72;5026360;28;20100;-71
2022/01/11 05:25:03;;;;;;;8.75;4.13;;;;;;;-1.17;100.00;102925.31;5027100;28;20052;-73
2022/01/11 05:27:31;;;;;;;5.63;2.42;;;;;;;-1.11;100.00;102920.19;5027352;28;20128;-72
2022/01/11 05:29:58;;;;;;;4.50;3.35;;;;;;;-1.14;100.00;102927.91;5033525;28;20164;-72
2022/01/11 05:32:25;;;;;;;4.95;3.28;;;;;;;-1.10;100.00;102921.91;5038619;28;20044;-71
2022/01/11 05:34:51;;;;;;;8.10;5.40;;;;;;;-1.08;100.00;102920.19;5034159;28;20052;-73
2022/01/11 05:37:18;;;;;;;4.60;2.72;;;;;;;-1.03;100.00;102926.25;5026649;28;20042;-72
2022/01/11 05:39:45;;;;;;;5.50;3.42;;;;;;;-1.10;100.00;102924.47;5020569;28;20138;-72
2022/01/11 05:42:11;;;;;;;14.10;5.25;;;;;;;-1.08;100.00;102922.75;5020357;28;20077;-72
2022/01/11 05:44:39;;;;;;;5.32;3.33;;;;;;;-1.07;100.00;102918.50;5023389;28;20124;-71
2022/01/11 05:47:06;;;;;;;8.90;5.15;;;;;;;-1.08;100.00;102919.34;5021438;28;20049;-72
2022/01/11 05:49:33;;;;;;;10.00;4.53;;;;;;;-1.10;100.00;102926.19;5020433;28;20107;-72
2022/01/11 05:51:59;;;;;;;9.52;4.10;;;;;;;-1.10;100.00;102931.34;5020759;28;20041;-71
2022/01/11 05:54:26;;;;;;;4.68;2.10;;;;;;;-1.11;100.00;102935.66;5025319;28;20041;-73
2022/01/11 05:56:52;;;;;;;4.13;3.42;;;;;;;-1.13;100.00;102927.06;5018064;28;20056;-70
2022/01/11 05:59:19;;;;;;;6.07;3.72;;;;;;;-1.11;100.00;102933.09;5021357;28;20055;-69
2022/01/11 06:01:47;;;;;;;16.45;5.47;;;;;;;-1.14;100.00;102925.34;5020594;28;20166;-71
2022/01/11 06:04:14;;;;;;;35.63;4.75;;;;;;;-1.17;100.00;102927.03;5023485;28;20045;-69
2022/01/11 06:06:41;;;;;;;7.43;4.03;;;;;;;-1.12;100.00;102933.94;5023004;28;20050;-69
2022/01/11 06:09:07;;;;;;;5.70;3.13;;;;;;;-1.12;100.00;102931.38;5020763;28;20061;-71
2022/01/11 06:11:34;;;;;;;13.95;5.53;;;;;;;-1.15;100.00;102933.06;5039147;28;20057;-71
2022/01/11 06:14:01;;;;;;;7.70;5.20;;;;;;;-1.14;100.00;102935.66;5021106;28;20059;-71
2022/01/11 06:16:27;;;;;;;4.05;3.40;;;;;;;-1.16;100.00;102939.94;5023398;28;20049;-69
2022/01/11 06:18:55;;;;;;;11.10;4.97;;;;;;;-1.14;100.00;102934.78;5020877;28;20069;-68
2022/01/11 06:21:22;;;;;;;8.88;4.10;;;;;;;-1.16;100.00;102950.25;5024668;28;20051;-70
2022/01/11 06:23:49;;;;;;;7.72;4.40;;;;;;;-1.17;100.00;102965.72;5028212;28;20047;-69
2022/01/11 06:26:16;;;;;;;10.27;3.33;;;;;;;-1.17;100.00;102964.00;5024445;28;20044;-69
2022/01/11 06:28:43;;;;;;;6.35;3.85;;;;;;;-1.10;100.00;102967.47;5023698;28;20040;-68
2022/01/11 06:31:10;;;;;;;9.65;3.58;;;;;;;-1.03;100.00;102975.25;5021442;28;20052;-68
2022/01/11 06:33:36;;;;;;;11.10;3.50;;;;;;;-1.03;100.00;102962.34;5024762;28;20044;-69
2022/01/11 06:36:09;;;;;;;5.40;3.88;;;;;;;-1.07;100.00;102968.34;5034581;28;20053;-71
2022/01/11 06:38:36;;;;;;;4.40;3.28;;;;;;;-1.11;100.00;102976.06;5038454;28;20074;-70
2022/01/11 06:41:03;;;;;;;4.63;2.90;;;;;;;-1.09;100.00;102974.34;5046500;28;20067;-70
2022/01/11 06:43:29;;;;;;;3.40;1.83;;;;;;;-1.07;100.00;102976.06;5031858;28;20045;-72
2022/01/11 06:45:56;;;;;;;11.80;5.28;;;;;;;-1.15;100.00;102969.19;5023197;28;20045;-69
2022/01/11 06:48:23;;;;;;;6.72;4.55;;;;;;;-1.16;100.00;102982.91;5027360;28;20044;-69
2022/01/11 06:50:50;;;;;;;5.82;3.60;;;;;;;-1.23;100.00;102988.91;5025263;28;20046;-71
2022/01/11 06:53:18;;;;;;;2.92;1.73;;;;;;;-1.19;100.00;102986.31;5027649;28;20099;-70
2022/01/11 06:55:44;;;;;;;6.78;4.30;;;;;;;-1.23;100.00;102991.50;5022070;28;20037;-68
2022/01/11 06:58:11;;;;;;;12.88;3.45;;;;;;;-1.29;100.00;102988.84;5025902;28;20120;-71
2022/01/11 07:00:38;;;;;;;8.43;4.60;;;;;;;-1.20;100.00;102991.47;5032611;28;20049;-69
2022/01/11 07:03:05;;;;;;;8.45;4.63;;;;;;;-1.21;100.00;102994.91;5026652;28;20163;-70
2022/01/11 07:05:32;;;;;;;15.15;4.97;;;;;;;-1.19;100.00;103004.38;5030411;28;20128;-71
2022/01/11 07:07:59;;;;;;;12.75;4.35;;;;;;;-1.22;100.00;103004.38;5029215;28;20504;-71
2022/01/11 07:10:27;;;;;;;5.60;3.63;;;;;;;-1.22;100.00;103008.66;5030905;28;20103;-70
2022/01/11 07:12:55;;;;;;;5.82;3.08;;;;;;;-1.25;100.00;102993.19;5030770;28;20037;-72
2022/01/11 07:15:21;;;;;;;5.75;2.60;;;;;;;-1.25;100.00;103012.09;5030926;28;20637;-70
2022/01/11 07:17:48;;;;;;;7.85;3.15;;;;;;;-1.19;100.00;103001.78;5032823;28;20044;-71
2022/01/11 07:20:15;;;;;;;7.25;3.25;;;;;;;-1.24;100.00;103003.50;5039994;28;20045;-72
2022/01/11 07:22:41;;;;;;;5.28;3.78;;;;;;;-1.27;100.00;103016.38;5047453;28;20128;-72
2022/01/11 07:25:08;;;;;;;18.17;3.78;;;;;;;-1.27;100.00;103016.38;5046179;28;20037;-72
2022/01/11 07:27:37;;;;;;;4.60;3.95;;;;;;;-1.25;100.00;103009.50;5048715;28;20345;-71
2022/01/11 07:30:05;;;;;;;10.32;4.00;;;;;;;-1.26;100.00;103009.50;5046085;28;20048;-71
2022/01/11 07:32:33;;;;;;;6.60;4.20;;;;;;;-1.17;100.00;103012.13;5041854;28;20128;-72
2022/01/11 07:35:00;;;;;;;6.25;3.55;;;;;;;-1.17;100.00;103033.59;5035297;28;20049;-72
2022/01/11 07:37:26;;;;;;;7.07;3.92;;;;;;;-1.14;100.00;103023.31;5036054;28;20128;-73
2022/01/11 07:39:53;;;;;;;8.23;5.47;;;;;;;-1.16;100.00;103035.34;5034028;28;20057;-73
2022/01/11 07:42:20;;;;;;;7.97;3.42;;;;;;;-1.12;100.00;103043.94;5037491;28;20056;-71
2022/01/11 07:44:51;;;;;;;5.80;3.45;;;;;;;-1.11;100.00;103051.72;5041916;28;20053;-72
2022/01/11 07:47:17;;;;;;;4.13;2.83;;;;;;;-1.07;100.00;103050.00;5036155;28;20045;-72
2022/01/11 07:49:44;;;;;;;4.95;3.63;;;;;;;-1.09;100.00;103057.72;5034971;28;20435;-72
2022/01/11 07:52:10;;;;;;;7.65;4.45;;;;;;;-1.06;100.00;103060.31;5033473;28;20049;-71
2022/01/11 07:54:37;;;;;;;4.28;3.58;;;;;;;-1.16;100.00;103063.69;5028167;28;20057;-71
2022/01/11 07:57:04;;;;;;;7.13;2.85;;;;;;;-1.12;100.00;103067.16;5033729;28;20049;-73
2022/01/11 07:59:31;;;;;;;4.30;2.13;;;;;;;-1.12;100.00;103062.88;5032304;28;20033;-72
2022/01/11 08:01:59;;;;;;;9.95;3.80;;;;;;;-1.08;100.00;103062.00;5032900;28;20065;-73
2022/01/11 08:04:30;;;;;;;4.43;3.17;;;;;;;-1.13;100.00;103068.88;5034929;28;20044;-70
2022/01/11 08:06:57;;;;;;;6.28;4.25;;;;;;;-1.14;100.00;103064.56;5029059;28;20045;-72
2022/01/11 08:09:24;;;;;;;2.17;2.00;;;;;;;-1.13;100.00;103066.31;5033472;28;20038;-73
2022/01/11 08:11:51;;;;;;;9.90;3.78;;;;;;;-1.09;100.00;103073.19;5032184;28;20064;-72
2022/01/11 08:14:17;;;;;;;5.32;2.55;;;;;;;-1.00;100.00;103067.22;5037818;28;20106;-73
2022/01/11 08:16:44;;;;;;;11.93;4.30;;;;;;;-1.03;100.00;103067.19;5029353;28;20079;-72
2022/01/11 08:19:12;;;;;;;4.60;3.15;;;;;;;-0.99;100.00;103069.81;5037497;28;20041;-73
2022/01/11 08:21:40;;;;;;;7.22;4.28;;;;;;;-1.02;100.00;103069.78;5035487;28;20057;-73
2022/01/11 08:24:07;;;;;;;7.07;3.75;;;;;;;-1.01;100.00;103070.66;5031762;28;20044;-72
2022/01/11 08:26:34;;;;;;;7.07;2.72;;;;;;;-1.02;100.00;103074.09;5039713;28;20056;-73
2022/01/11 08:29:01;;;;;;;18.08;4.88;;;;;;;-0.93;100.00;103076.72;5036405;28;20079;-72
2022/01/11 08:31:27;;;;;;;4.18;2.30;;;;;;;-0.90;100.00;103075.00;5035393;28;20045;-72
2022/01/11 08:33:54;;;;;;;5.80;3.53;;;;;;;-0.84;100.00;103069.84;5031741;28;20132;-68
2022/01/11 08:36:22;;;;;;;12.38;2.40;;;;;;;-0.79;100.00;103068.19;5035887;28;20127;-71
2022/01/11 08:38:48;;;;;;;7.50;4.43;;;;;;;-0.89;100.00;103070.69;5032534;28;20064;-69
2022/01/11 08:41:19;;;;;;;5.32;3.00;;;;;;;-0.80;100.00;103067.31;5035522;28;20044;-68
2022/01/11 08:43:45;;;;;;;21.30;4.90;;;;;;;-0.73;100.00;103060.47;5031327;28;20045;-72
2022/01/11 08:46:14;;;;;;;8.13;3.67;;;;;;;-0.59;99.89;103075.13;5032326;28;20098;-73
2022/01/11 08:48:40;;;;;;;2.75;1.90;;;;;;;-0.52;100.00;103074.28;5028150;28;20045;-73
2022/01/11 08:51:07;;;;;;;6.32;3.58;;;;;;;-0.61;99.42;103075.97;5037973;28;20068;-72
2022/01/11 08:53:36;;;;;;;6.20;4.25;;;;;;;-0.38;99.67;103067.44;5052655;28;20067;-72
2022/01/11 08:56:03;;;;;;;5.82;3.35;;;;;;;-0.32;98.62;103061.44;5036668;28;20123;-73
2022/01/11 08:58:30;;;;;;;9.88;4.93;;;;;;;-0.32;98.40;103057.09;5041541;28;20056;-71
2022/01/11 09:00:57;;;;;;;12.55;4.60;;;;;;;-0.43;97.76;103063.13;5039019;28;20072;-73
2022/01/11 09:03:23;;;;;;;10.32;2.67;;;;;;;-0.29;98.44;103061.44;5043225;28;20037;-71
2022/01/11 09:05:51;;;;;;;8.10;4.63;;;;;;;-0.26;97.78;103056.25;5034444;28;20055;-71
2022/01/11 09:08:18;;;;;;;4.03;2.15;;;;;;;-0.25;98.02;103060.56;5045788;28;20491;-74
2022/01/11 09:13:27;;;;;;;4.25;2.95;;;;;;;-0.03;97.20;103070.94;5092676;28;20471;-73
2022/01/11 09:15:56;;;;;;;8.40;4.70;;;;;;;-0.07;96.66;103069.19;5104164;28;20033;-73
2022/01/11 09:18:23;;;;;;;10.68;3.45;;;;;;;-0.18;96.94;103070.94;5088114;28;20122;-73
2022/01/11 09:23:29;;;;;;;8.13;4.80;;;;;;;0.27;96.24;103066.66;5149129;27;20579;-72
2022/01/11 09:25:56;;;;;;;19.30;4.93;;;;;;;0.40;95.72;103073.50;5085429;28;20034;-71
2022/01/11 09:28:23;;;;;;;6.80;4.22;;;;;;;0.40;95.26;103070.09;5080390;28;20074;-72
2022/01/11 09:30:51;;;;;;;9.60;4.85;;;;;;;0.38;95.24;103075.22;5074891;28;20048;-71
2022/01/11 09:33:17;;;;;;;7.68;5.50;;;;;;;0.26;95.50;103074.38;5072247;28;20406;-71
2022/01/11 09:35:44;;;;;;;7.38;5.45;;;;;;;0.36;95.91;103079.56;5082930;28;20055;-71
2022/01/11 09:38:11;;;;;;;5.35;4.38;;;;;;;0.40;95.73;103083.00;5076343;28;20043;-71
2022/01/11 09:40:39;;;;;;;8.00;5.07;;;;;;;0.22;95.40;103078.69;5079105;28;20040;-71
2022/01/11 09:43:06;;;;;;;2.97;2.65;;;;;;;0.23;96.06;103084.72;5074390;28;20592;-72
2022/01/11 09:45:33;;;;;;;8.85;4.55;;;;;;;0.26;96.68;103085.59;5073347;28;20105;-69
2022/01/11 09:48:00;;;;;;;10.23;3.30;;;;;;;0.46;96.55;103091.59;5073333;28;20136;-72
2022/01/11 09:50:26;;;;;;;5.68;3.47;;;;;;;0.48;96.13;103097.63;5075173;28;20055;-71
2022/01/11 09:52:53;;;;;;;20.15;5.30;;;;;;;0.49;95.71;103095.94;5069802;28;20491;-71
2022/01/11 09:55:20;;;;;;;8.05;4.30;;;;;;;0.28;95.66;103099.38;5075111;28;20050;-71
2022/01/11 09:57:49;;;;;;;9.10;3.55;;;;;;;0.30;96.04;103096.78;5077446;28;20064;-72
2022/01/11 10:00:16;;;;;;;4.25;3.85;;;;;;;0.15;95.88;103091.63;5070748;28;20094;-74
2022/01/11 10:02:43;;;;;;;11.05;5.10;;;;;;;0.19;96.59;103096.78;5074961;28;20056;-72
2022/01/11 10:05:11;;;;;;;4.35;2.50;;;;;;;0.44;97.03;103095.94;5076080;28;20052;-72
2022/01/11 10:07:40;;;;;;;10.65;5.03;;;;;;;0.74;96.31;103085.53;5076836;28;20111;-75
2022/01/11 10:10:13;;;;;;;5.45;3.97;;;;;;;1.09;95.33;103078.53;5070175;28;20052;-73
2022/01/11 10:12:42;;;;;;;14.50;4.93;;;;;;;1.21;94.46;103094.00;5091462;28;20143;-72
2022/01/11 10:15:10;;;;;;;11.40;5.05;;;;;;;1.14;93.57;103076.78;5075732;28;20074;-71
2022/01/11 10:17:41;;;;;;;14.32;6.10;;;;;;;1.29;93.21;103081.91;5072727;28;20557;-72
2022/01/11 10:20:11;;;;;;;5.22;4.07;;;;;;;1.17;92.80;103081.97;5073066;28;20048;-72
2022/01/11 10:22:46;;;;;;;4.40;3.17;;;;;;;1.22;93.12;103091.44;5076797;28;20458;-71
2022/01/11 10:25:12;;;;;;;12.88;5.00;;;;;;;1.57;92.57;103086.09;5085630;28;20040;-72
2022/01/11 10:27:40;;;;;;;25.05;6.10;;;;;;;1.83;91.15;103085.94;5078414;28;20036;-72
2022/01/11 10:30:10;;;;;;;11.20;5.32;;;;;;;1.99;90.51;103086.66;5091862;28;20036;-72
2022/01/11 10:32:39;;;;;;;10.68;4.57;;;;;;;1.97;89.07;103093.63;5076740;28;20041;-72
2022/01/11 10:35:09;;;;;;;7.18;4.95;;;;;;;1.85;89.64;103097.13;5062335;28;20036;-72
2022/01/11 10:37:37;;;;;;;13.52;7.45;;;;;;;2.01;90.20;103092.72;5062811;28;20078;-73
2022/01/11 10:40:10;;;;;;;8.80;4.68;;;;;;;2.40;88.21;103088.09;5060906;28;20052;-73
2022/01/11 10:42:41;;;;;;;8.55;4.70;;;;;;;2.36;88.27;103090.72;5061650;28;20183;-71
2022/01/11 10:45:10;;;;;;;6.32;3.47;;;;;;;2.44;87.34;103100.13;5064102;28;20040;-71
2022/01/11 10:47:38;;;;;;;5.18;1.42;;;;;;;2.35;88.35;103099.38;5064707;28;20119;-73
2022/01/11 10:50:09;;;;;;;7.03;3.95;;;;;;;2.66;87.90;103096.50;5057638;28;20044;-70
2022/01/11 10:52:35;;;;;;;12.90;5.53;;;;;;;3.05;86.23;103103.88;5061833;28;20125;-71
2022/01/11 10:55:05;;;;;;;13.25;6.22;;;;;;;3.26;84.40;103094.09;5065514;28;20043;-70
2022/01/11 10:57:44;;;;;;;15.07;6.10;;;;;;;3.26;84.40;103105.31;5064889;28;20044;-70
2022/01/11 11:00:25;;;;;;;8.60;4.40;;;;;;;3.28;84.23;103093.19;5054502;28;20053;-72
2022/01/11 11:03:01;;;;;;;9.43;4.88;;;;;;;2.86;85.66;103104.91;5064463;28;20052;-72
2022/01/11 11:05:31;;;;;;;14.52;6.45;;;;;;;2.93;88.06;103110.06;5064825;28;20044;-71
2022/01/11 11:08:01;;;;;;;21.08;6.18;;;;;;;3.12;86.48;103103.75;5067879;28;20105;-72
2022/01/11 11:10:43;;;;;;;16.63;5.55;;;;;;;3.30;85.81;103099.22;5071369;28;20105;-72
2022/01/11 11:13:20;;;;;;;10.95;4.72;;;;;;;3.40;85.43;103106.03;5071060;28;20045;-74
2022/01/11 11:15:51;;;;;;;12.63;5.68;;;;;;;3.43;84.64;103100.78;5068640;28;20066;-71
2022/01/11 11:18:28;;;;;;;10.27;4.95;;;;;;;3.12;85.90;103106.34;5078213;28;20036;-72
2022/01/11 11:20:55;;;;;;;12.48;6.50;;;;;;;3.31;86.39;103106.16;5067492;28;20048;-71
2022/01/11 11:23:22;;;;;;;8.05;4.53;;;;;;;3.55;86.90;103099.75;5067847;28;20099;-72
2022/01/11 11:25:49;;;;;;;12.38;6.55;;;;;;;3.67;85.59;103095.25;5067042;28;20032;-72
2022/01/11 11:28:16;;;;;;;17.77;5.60;;;;;;;3.62;85.51;103102.28;5090129;28;20045;-71
2022/01/11 11:30:43;;;;;;;4.38;1.98;;;;;;;3.66;85.47;103092.69;5061365;28;20087;-73
2022/01/11 11:33:11;;;;;;;14.43;6.57;;;;;;;4.00;85.34;103086.97;5061186;28;20143;-74